WEATHER DATA

TODAY
Time Temp. Dewp. Hum. Wind dir Wind speed Wind gust Bar. 1h Prec. 24h Prec.
00:00 13.4 12 91 301 1.7 4.2 1008.9 0.0000 0.0000
00:10 13.4 11.8 90 293 1.7 3.9 1008.9 0.0000 0.0000
00:20 13.3 11.9 91 304 1.4 3.9 1008.9 0.0000 0.0000
00:30 13.3 11.9 91 313 1.9 3.9 1008.9 0.0000 0.0000
00:40 13.3 11.9 91 315 2.2 5.3 1008.8 0.0000 0.0000
00:51 13.3 11.7 90 311 1.9 4.7 1008.8 0.0000 0.0000
01:01 13.3 11.7 90 316 2.2 4.7 1008.7 0.0000 0.0000
01:10 13.3 11.7 90 319 2.5 6.1 1008.8 0.0000 0.0000
01:21 13.2 11.6 90 318 2.8 5 1008.7 0.0000 0.0000
01:31 13.2 11.6 90 313 2.2 5.8 1008.7 0.0000 0.0000
01:41 13.2 11.6 90 316 2.5 5 1008.8 0.0000 0.0000
01:51 13.2 11.8 91 317 2.2 5.3 1008.8 0.0000 0.0000
02:01 13.2 11.8 91 315 2.2 5.6 1008.8 0.0000 0.0000
02:11 13.2 11.8 91 319 2.2 5.3 1008.7 0.0000 0.0000
02:23 13.2 11.8 91 321 1.9 4.2 1008.7 0.0000 0.0000
02:33 13.2 11.8 91 319 1.9 3.9 1008.9 0.0000 0.0000
02:43 13.2 11.8 91 319 1.7 4.2 1008.9 0.0000 0.0000
02:53 13.1 11.7 91 315 1.7 3.6 1008.9 0.0000 0.0000
03:03 13.1 11.7 91 317 2.2 5 1008.9 0.0000 0.0000
03:13 13 11.6 91 315 1.7 3.3 1008.9 0.0000 0.0000
03:24 13 11.6 91 316 1.9 3.6 1008.8 0.0000 0.0000
03:34 13 11.6 91 317 1.9 4.2 1008.8 0.0000 0.0000
03:44 12.9 11.5 91 315 2.5 6.4 1008.7 0.0000 0.0000
03:54 12.9 11.5 91 315 1.7 3.1 1008.7 0.0000 0.0000
04:04 12.9 11.3 90 299 1.1 2.8 1008.7 0.0000 0.0000
04:14 12.8 11.2 90 288 1.4 3.1 1008.7 0.0000 0.0000
04:24 12.8 11.2 90 293 1.1 3.1 1008.7 0.0000 0.0000
04:35 12.7 11.1 90 296 1.1 3.1 1008.7 0.0000 0.0000
04:44 12.7 11.1 90 292 1.4 2.8 1008.7 0.0000 0.0000
04:54 12.7 11.1 90 291 1.4 4.2 1008.7 0.0000 0.0000
05:04 12.7 11.1 90 280 1.1 2.5 1008.6 0.0000 0.0000
05:15 12.7 11.1 90 293 1.7 3.3 1008.6 0.0000 0.0000
05:25 12.7 10.9 89 304 1.7 3.1 1008.5 0.0000 0.0000
05:35 12.6 10.8 89 314 2.2 4.4 1008.4 0.0000 0.0000
05:45 12.6 10.8 89 317 2.2 5 1008.4 0.0000 0.0000
05:55 12.4 10.5 88 308 1.4 3.6 1008.5 0.0000 0.0000
06:05 12.3 10.5 89 270 1.1 2.5 1008.5 0.0000 0.0000
06:15 12.2 10.4 89 279 1.1 2.2 1008.6 0.0000 0.0000
06:25 12.1 10.5 90 287 1.9 4.4 1008.6 0.0000 0.0000
06:35 12.1 10.5 90 300 1.4 4.7 1008.7 0.0000 0.0000
06:45 12.2 10.6 90 302 2.2 5 1008.7 0.0000 0.0000
06:56 12.2 10.4 89 309 1.7 3.9 1008.7 0.0000 0.0000
07:06 12.2 10.4 89 309 1.9 3.6 1008.8 0.0000 0.0000
07:16 12.2 10.4 89 304 1.7 3.1 1008.8 0.0000 0.0000
07:25 12.3 10.5 89 313 1.9 5.6 1008.8 0.0000 0.0000
07:36 12.3 10.5 89 307 1.4 3.6 1008.9 0.0000 0.0000
07:46 12.3 10.5 89 284 1.9 3.6 1009 0.0000 0.0000
07:56 12.3 10.4 88 303 1.7 4.4 1009 0.0000 0.0000
08:06 12.2 10.3 88 286 1.7 5.3 1009 0.0000 0.0000
08:16 12.1 10.2 88 307 1.7 3.6 1009.1 0.0000 0.0000
08:26 12.1 10.2 88 300 1.1 3.3 1009.1 0.0000 0.0000
08:36 12.2 10.4 89 297 1.4 3.6 1009.1 0.0000 0.0000
08:47 12.4 10.5 88 307 1.7 3.9 1009.1 0.0000 0.0000
08:57 12.5 10.6 88 316 1.9 4.2 1009.2 0.0000 0.0000
09:06 12.6 10.7 88 311 1.7 4.4 1009.2 0.0000 0.0000
09:17 12.7 10.6 87 300 1.7 4.2 1009.2 0.0000 0.0000
09:27 12.8 10.7 87 303 1.4 3.3 1009.2 0.0000 0.0000
09:37 13 10.9 87 315 1.4 3.9 1009.2 0.0000 0.0000
09:47 13.2 10.9 86 304 1.4 3.6 1009.2 0.0000 0.0000
09:57 13.4 11.1 86 316 1.7 5 1009.2 0.0000 0.0000
10:07 13.5 10.9 84 322 1.9 4.4 1009.2 0.0000 0.0000
10:17 13.7 11 84 317 1.7 3.6 1009.2 0.0000 0.0000
10:27 13.9 11.1 83 302 1.9 5.8 1009.3 0.0000 0.0000
10:38 14 10.8 81 307 2.2 4.4 1009.3 0.0000 0.0000
10:48 14 10.8 81 305 2.2 4.2 1009.4 0.0000 0.0000
10:57 14 10.8 81 313 2.5 5.3 1009.3 0.0000 0.0000
11:08 14.3 11.1 81 308 2.5 6.1 1009.3 0.0000 0.0000
11:18 14.3 10.9 80 298 1.9 4.7 1009.3 0.0000 0.0000
11:28 14.4 11 80 316 2.5 5 1009.3 0.0000 0.0000
11:38 14.5 11.1 80 311 1.7 3.6 1009.4 0.0000 0.0000
11:48 14.6 11.2 80 303 1.7 3.6 1009.3 0.0000 0.0000
11:58 14.7 11.1 79 309 1.9 4.4 1009.2 0.0000 0.0000
12:08 14.8 11 78 313 1.9 4.2 1009.2 0.0000 0.0000
12:19 14.9 10.9 77 319 2.5 5.8 1009.2 0.0000 0.0000
12:29 14.9 10.9 77 288 1.7 3.3 1009.3 0.0000 0.0000
12:38 14.9 10.9 77 319 2.2 5.3 1009.3 0.0000 0.0000
12:48 15 11.2 78 318 1.9 4.4 1009.3 0.0000 0.0000
12:59 15.2 11.4 78 306 1.7 4.2 1009.3 0.0000 0.0000
13:09 15.2 11 76 287 1.4 3.6 1009.4 0.0000 0.0000
13:19 15.3 11.5 78 283 1.1 2.8 1009.3 0.0000 0.0000
13:29 15.5 11.7 78 296 1.1 2.8 1009.2 0.0000 0.0000
13:39 15.8 11.8 77 300 1.1 3.1 1009.2 0.0000 0.0000
13:49 15.8 11.4 75 313 1.9 4.2 1009.2 0.0000 0.0000
13:59 15.8 11.6 76 302 2.2 4.4 1009.3 0.0000 0.0000
14:10 15.4 11.2 76 298 1.4 3.9 1009.4 0.0000 0.0000
14:20 15.3 11.3 77 287 1.4 2.8 1009.3 0.0000 0.0000
14:29 15.4 11.6 78 311 1.7 4.4 1009.3 0.0000 0.0000
14:40 15.2 11.4 78 318 2.2 5.6 1009.4 0.0000 0.0000
14:50 15.1 11.3 78 318 1.9 4.4 1009.3 0.0000 0.0000
15:00 15.1 11.3 78 317 1.9 6.1 1009.3 0.0000 0.0000
15:10 15.2 11.4 78 294 1.4 4.2 1009.3 0.0000 0.0000
15:20 15.3 11.3 77 305 1.9 4.2 1009.2 0.0000 0.0000
15:30 15.4 11.4 77 303 1.4 3.3 1009.2 0.0000 0.0000
15:40 15.6 11.6 77 296 1.4 3.9 1009.1 0.0000 0.0000
15:50 15.7 11.5 76 289 1.4 3.9 1009 0.0000 0.0000
16:01 15.8 11.6 76 292 1.9 3.9 1009 0.0000 0.0000
16:10 15.7 11.5 76 281 1.4 3.6 1008.9 0.0000 0.0000
16:20 15.7 11.7 77 291 1.7 3.9 1008.8 0.0000 0.0000
16:31 15.6 11.6 77 296 1.4 2.8 1008.9 0.0000 0.0000
16:41 15.5 11.3 76 298 1.7 4.2 1008.9 0.0000 0.0000
16:51 15.3 11.3 77 300 1.7 3.1 1008.9 0.0000 0.0000
17:01 15.2 11.2 77 280 1.4 2.5 1008.9 0.0000 0.0000
17:11 15 11.2 78 285 1.4 3.3 1008.8 0.0000 0.0000
17:21 14.9 11.3 79 285 1.4 2.8 1008.9 0.0000 0.0000
17:31 14.8 11.4 80 307 1.7 4.4 1008.9 0.0000 0.0000
17:42 14.7 11.5 81 318 1.9 4.4 1008.9 0.0000 0.0000
17:51 14.6 11.6 82 313 1.7 3.9 1008.9 0.0000 0.0000
18:01 14.4 11.6 83 319 2.8 5.6 1008.9 0.0000 0.0000
18:11 14.3 11.6 84 313 1.1 2.5 1008.8 0.0000 0.0000
18:22 14.1 11.8 86 315 1.7 4.7 1009 0.0000 0.0000
18:32 13.9 11.8 87 297 1.4 3.9 1009 0.0000 0.0000
18:41 13.7 11.8 88 293 1.1 4.4 1009 0.0000 0.0000
18:54 13.5 11.7 89 291 1.4 3.1 1009 0.3030 0.3000
19:04 13.4 11.8 90 276 1.4 2.8 1009 0.4040 0.4000
19:14 13.3 11.7 90 304 1.4 4.2 1009 0.5050 0.5000
19:24 13.2 11.8 91 289 1.4 3.3 1009 0.5050 0.5000
19:34 13.1 11.8 92 293 1.4 3.6 1009.1 0.5050 0.5000
19:45 13.1 11.8 92 312 1.1 3.9 1009.1 0.5050 0.5000
19:55 13.1 11.8 92 307 1.4 4.2 1009.1 0.2020 0.5000
20:05 13.1 12 93 317 1.7 3.1 1009.2 0.1010 0.5000
20:14 13.1 12 93 303 1.4 3.1 1009.2 0.0000 0.5000
20:25 13.1 12 93 299 1.4 3.1 1009.3 0.1010 0.6000
20:35 13.1 12 93 292 1.1 3.1 1009.3 0.1010 0.6000
20:45 13.1 12.2 94 296 1.1 2.5 1009.3 0.2020 0.7000
20:55 13 12.1 94 300 0.8 1.9 1009.3 0.3030 0.8000
21:05 13 12.1 94 304 1.9 3.9 1009.3 0.3030 0.8000
21:15 13 12.1 94 307 1.1 3.1 1009.2 0.3030 0.8000
21:25 13 12.1 94 308 1.4 3.1 1009.2 0.3030 0.9000
21:36 13 12.1 94 303 1.1 3.3 1009.1 0.3030 0.9000
21:45 13 12.1 94 296 1.1 3.3 1009.1 0.4040 1.1000
21:55 13 12.1 94 301 1.1 2.8 1009.1 0.6060 1.4000
22:06 13 12.2 95 295 1.1 2.2 1009 0.7070 1.5000
22:16 12.9 12.1 95 289 1.1 3.3 1009 0.8080 1.6000
22:25 12.9 12.1 95 325 2.2 4.2 1009.2 1.1110 2.0000
22:35 12.9 12.1 95 341 1.7 3.6 1009.3 1.2120 2.1000

DAY STATISTIC

2021-09-18
TEMPERATURE
AVERAGE
13.6
HIGH
15.8
13:39
LOW
12.1
06:25
PRESSURE
AVERAGE
1009.0
HIGH
1009.4
10:48
LOW
1008.4
05:35
DEWPOINT
AVERAGE
11.3
HIGH
12.2
20:45
LOW
10.2
08:16
HUMIDITY
AVERAGE
86
HIGH
95
22:06
LOW
75
13:49
WIND SPEED
AVERAGE
1.7
HIGH
2.8
01:21
WIND GUST
AVERAGE
4.0
HIGH
6.4
03:44
WIND DIRECTION
PREVAILING
NW
80.7%
N
0.7
NE
0.0
E
0.0
SE
0.0
S
0.0
SW
0.0
W
18.5
NW
80.7
PRECIPITATION
RAIN HOUR
1.2
RAIN DAY
2.1
TEMPERATURE (°C)
LOW
12.1
HIGH
15.8
AVERAGE
13.6
PRESSURE (hpa)
LOW
1008.4
HIGH
1009.4
AVERAGE
1009.0
DEVICE